logo
Search for airport 
image banner adimage banner adimage banner ad
image banner ad

WIHH - Jakarta/Halim Perdanakusuma

Located in Jakarta, Indonesia

ICAO - WIHH, IATA - HLP

Data provided by Airmate  

General information

Coordinates: S6°16'3" E106°53'11"
Elevation is 91 feet MSL.
 
View others Airports in Jakarta Raya

Operational data

Special qualification required
Current time UTC:
Current local time:
Weather
METAR: WIHH 170500Z 03006KT 5000 HZ FEW016CB SCT018 33/25 Q1008 RMK CB AND RA TO NE
TAF: TAF WIHH 170500Z 1706/1806 12008KT 6000 SCT020 TEMPO 1706/1709 4000 -RA BKN018 BECMG 1711/1713 21005KT BECMG 1720/1722 00000KT 5000 HZ FEW020
View NOTAMs / SUP AIP / TFR affecting this airport [VIEW]
Communications frequencies: [VIEW]

Runways:

RWY identifierQFULength (ft)Width (ft)SurfaceLDA (ft)
0665°9843148ASP
24245°9843148ASP

Airport contact information

Address: Jakarta Indonesia

Satellite view of WIHH